CheckWX is a tool to help pilots better visualize weather data.  It is not intended as a substitute for an official pre-flight weather briefing.

20:26:52 UTC

KAOO METAR
Altoona-Blair County Airport
Altoona, Pennsylvania, USA
Current

34 mins ago

KAOO 201953Z AUTO 16012G21KT 10SM CLR 20/07 A2956 RMK AO2 PK WND 15029/1924 SLP001 T02000072
Observed
Apr-20 @ 19:53 UTC
Wind
  • 160° at 12 KTS
  • Gusting to 21 KTS
Visibility
10 SM
Flight Rules
VFR
Cloud Levels
  • Clear skies
Temperature
20°C / 68°F
Dewpoint
C / 45°F
Humidity
43%
Altimeter
29.56" Hg
Pressure
1001.02 hPa
Previous

2 hours ago

KAOO 201853Z AUTO 16011G23KT 10SM CLR 20/08 A2956 RMK AO2 PK WND 17027/1800 SLP003 T02000083
Observed
Apr-20 @ 18:53 UTC
Wind
  • 160° at 11 KTS
  • Gusting to 23 KTS
Visibility
10 SM
Flight Rules
VFR
Cloud Levels
  • Clear skies
Temperature
20°C / 68°F
Dewpoint
C / 46°F
Humidity
46%
Altimeter
29.56" Hg
Pressure
1001.02 hPa
Previous

3 hours ago

KAOO 201753Z AUTO 17016G24KT 10SM CLR 21/08 A2956 RMK AO2 SLP001 60002 T02110083 10211 20172 51000
Observed
Apr-20 @ 17:53 UTC
Wind
  • 170° at 16 KTS
  • Gusting to 24 KTS
Visibility
10 SM
Flight Rules
VFR
Cloud Levels
  • Clear skies
Temperature
21°C / 70°F
Dewpoint
C / 46°F
Humidity
43%
Altimeter
29.56" Hg
Pressure
1001.02 hPa